Time;durP1;ratioP1;P1;durP2;ratioP2;P2;SDS_P1;SDS_P2;PMS_P1;PMS_P2;Temp;Humidity;BMP_temperature;BMP_pressure;BME280_temperature;BME280_humidity;BME280_pressure;Samples;Min_cycle;Max_cycle;Signal;HPM_P1;HPM_P2
2022/12/09 00:01:17;;;;;;;22.23;13.05;;;-3275.90;93.50;;;;;;5036347;28;20094;-41
2022/12/09 00:03:45;;;;;;;32.57;16.07;;;-3275.80;93.50;;;;;;5052353;28;20036;-43
2022/12/09 00:06:23;;;;;;;25.63;15.45;;;-3275.80;93.50;;;;;;5049437;28;20290;-42
2022/12/09 00:08:48;;;;;;;19.58;14.10;;;-3275.80;93.50;;;;;;5032191;28;20048;-42
2022/12/09 00:11:18;;;;;;;19.92;13.50;;;-3275.80;93.40;;;;;;5033906;28;20075;-42
2022/12/09 00:13:50;;;;;;;21.20;14.48;;;-3275.80;93.40;;;;;;5048012;28;20537;-41
2022/12/09 00:16:16;;;;;;;21.67;14.30;;;-3275.80;93.30;;;;;;5047493;28;20048;-42
2022/12/09 00:18:43;;;;;;;20.02;14.77;;;-3275.80;93.30;;;;;;5050809;28;20025;-44
2022/12/09 00:21:28;;;;;;;19.92;14.57;;;-3275.70;93.20;;;;;;5047286;28;20026;-44
2022/12/09 00:24:01;;;;;;;23.88;14.68;;;-3275.70;93.20;;;;;;5034680;28;20115;-43
2022/12/09 00:26:28;;;;;;;19.20;13.88;;;-3275.70;93.20;;;;;;5046317;28;20021;-46
2022/12/09 00:28:56;;;;;;;18.80;13.25;;;-3275.60;93.20;;;;;;5046989;28;20494;-43
2022/12/09 00:31:26;;;;;;;21.42;14.80;;;-3275.60;93.20;;;;;;5015190;28;20108;-42
2022/12/09 00:33:59;;;;;;;21.25;15.20;;;-3275.60;93.20;;;;;;5048277;28;20089;-44
2022/12/09 00:36:27;;;;;;;21.98;15.43;;;-3275.60;93.30;;;;;;5051756;28;20025;-42
2022/12/09 00:38:57;;;;;;;22.00;15.80;;;-3275.60;93.30;;;;;;5029967;28;20128;-41
2022/12/09 00:41:26;;;;;;;20.45;14.85;;;-3275.60;93.30;;;;;;5031911;28;20056;-44
2022/12/09 00:43:53;;;;;;;21.95;14.48;;;-3275.60;93.30;;;;;;5048849;28;20040;-42
2022/12/09 00:46:23;;;;;;;21.33;15.15;;;-3275.70;93.30;;;;;;5052203;28;20021;-42
2022/12/09 00:48:50;;;;;;;23.30;15.48;;;-3275.70;93.30;;;;;;5048257;28;20025;-43
2022/12/09 00:51:20;;;;;;;21.35;15.02;;;-3275.70;93.20;;;;;;5040712;28;20061;-43
2022/12/09 00:53:52;;;;;;;22.55;14.82;;;-3275.70;93.10;;;;;;5030801;28;20029;-42
2022/12/09 00:59:03;;;;;;;28.48;16.92;;;-3275.60;93.20;;;;;;5068954;28;20626;-43
2022/12/09 01:01:32;;;;;;;25.27;17.70;;;-3275.60;93.20;;;;;;5054204;28;20037;-42
2022/12/09 01:04:00;;;;;;;24.92;16.08;;;-3275.60;93.10;;;;;;5048711;28;20453;-42
2022/12/09 01:06:26;;;;;;;22.17;16.33;;;-3275.60;93.00;;;;;;5069589;28;20106;-43
2022/12/09 01:08:52;;;;;;;25.50;17.40;;;-3275.60;93.20;;;;;;5064219;28;20442;-42
2022/12/09 01:11:24;;;;;;;23.10;17.08;;;-3275.60;93.10;;;;;;5046624;28;20017;-41
2022/12/09 01:13:51;;;;;;;27.30;18.33;;;-3275.70;93.20;;;;;;5049237;28;20017;-41
2022/12/09 01:16:23;;;;;;;24.65;16.23;;;-3275.70;93.10;;;;;;5049945;28;20033;-44
2022/12/09 01:18:52;;;;;;;24.23;16.75;;;-3275.70;93.10;;;;;;5052798;28;20427;-41
2022/12/09 01:21:19;;;;;;;23.03;17.23;;;-3275.70;93.10;;;;;;5082629;28;20453;-45
2022/12/09 01:23:46;;;;;;;24.05;16.70;;;-3275.70;93.10;;;;;;5050199;28;20056;-44
2022/12/09 01:26:12;;;;;;;24.95;17.75;;;-3275.70;93.10;;;;;;5049630;28;20079;-44
2022/12/09 01:28:39;;;;;;;25.45;17.80;;;-3275.70;93.10;;;;;;5047886;28;20194;-44
2022/12/09 01:31:14;;;;;;;24.63;16.50;;;-3275.70;93.10;;;;;;5049840;28;20522;-42
2022/12/09 01:33:42;;;;;;;24.10;18.02;;;-3275.80;93.10;;;;;;5048183;28;20074;-43
2022/12/09 01:36:13;;;;;;;25.65;16.85;;;-3275.80;93.10;;;;;;5066759;28;20431;-41
2022/12/09 01:38:40;;;;;;;24.90;17.65;;;-3275.70;93.10;;;;;;5069360;28;20855;-41
2022/12/09 01:41:06;;;;;;;24.98;17.88;;;-3275.80;93.10;;;;;;5052332;28;20449;-42
2022/12/09 01:43:37;;;;;;;26.10;18.02;;;-3275.80;93.10;;;;;;5046746;28;20112;-42
2022/12/09 01:46:07;;;;;;;25.05;16.88;;;-3275.80;93.00;;;;;;5049319;28;20028;-43
2022/12/09 01:48:37;;;;;;;25.92;16.60;;;-3275.80;93.10;;;;;;5047997;28;20134;-42
2022/12/09 01:51:18;;;;;;;22.27;14.82;;;-3275.80;93.00;;;;;;5049274;28;20033;-41
2022/12/09 01:53:48;;;;;;;26.58;16.13;;;-3275.80;93.20;;;;;;5067107;28;20454;-42
2022/12/09 01:56:38;;;;;;;24.88;16.92;;;-3275.80;93.10;;;;;;5048750;28;20033;-43
2022/12/09 01:59:11;;;;;;;27.70;16.05;;;-3275.80;93.10;;;;;;5048775;28;20041;-44
2022/12/09 02:01:39;;;;;;;30.67;18.48;;;-3275.80;93.10;;;;;;5049466;28;20032;-42
2022/12/09 02:04:06;;;;;;;26.25;17.25;;;-3275.80;93.10;;;;;;5045563;28;20033;-41
2022/12/09 02:06:37;;;;;;;24.83;16.17;;;-3275.80;93.10;;;;;;5048000;28;20354;-42
2022/12/09 02:09:07;;;;;;;27.95;17.48;;;-3275.90;93.10;;;;;;5058887;28;20029;-43
2022/12/09 02:11:51;;;;;;;27.45;15.77;;;-3275.90;93.10;;;;;;5034697;28;20033;-41
2022/12/09 02:14:40;;;;;;;22.33;15.18;;;-3275.90;93.10;;;;;;5035974;28;20025;-41
2022/12/09 02:17:34;;;;;;;23.42;15.85;;;-3275.90;93.00;;;;;;5035658;28;20501;-41
2022/12/09 02:20:13;;;;;;;22.88;14.75;;;-3275.90;93.10;;;;;;5035367;28;20043;-42
2022/12/09 02:22:46;;;;;;;22.42;15.68;;;-3275.90;93.10;;;;;;5067149;28;20025;-44
2022/12/09 02:25:50;;;;;;;26.30;15.98;;;-3275.90;93.10;;;;;;5035270;28;20099;-41
2022/12/09 02:28:55;;;;;;;23.85;16.60;;;-3275.90;93.10;;;;;;5016686;28;20045;-44
2022/12/09 02:31:57;;;;;;;27.30;16.35;;;-3275.90;93.10;;;;;;5035771;28;20038;-44
2022/12/09 02:34:30;;;;;;;25.92;16.40;;;-3275.90;93.00;;;;;;5034891;28;20084;-41
2022/12/09 02:37:16;;;;;;;24.50;15.20;;;-3275.90;93.00;;;;;;5054351;28;20029;-42
2022/12/09 02:39:56;;;;;;;23.92;14.50;;;-3275.90;93.00;;;;;;5043182;28;20033;-45
2022/12/09 02:42:27;;;;;;;18.60;13.85;;;-3275.90;92.90;;;;;;5016047;28;20340;-41
2022/12/09 02:44:56;;;;;;;23.50;15.48;;;-3275.80;92.90;;;;;;5039541;28;20029;-42
2022/12/09 02:47:28;;;;;;;23.02;15.73;;;-3275.80;92.90;;;;;;5035047;28;20037;-44
2022/12/09 02:50:00;;;;;;;21.40;14.52;;;-3275.90;93.00;;;;;;5034475;28;20078;-42
2022/12/09 02:52:29;;;;;;;21.67;13.75;;;-3275.90;93.00;;;;;;5034676;28;20439;-41
2022/12/09 02:54:59;;;;;;;23.27;15.65;;;-3275.80;92.90;;;;;;5033713;28;20029;-43
2022/12/09 02:57:28;;;;;;;23.25;14.88;;;-3275.90;93.00;;;;;;5034172;28;20049;-43
2022/12/09 02:59:55;;;;;;;;;;;-3275.90;93.10;;;;;;5034464;28;20132;-45
2022/12/09 03:02:33;;;;;;;20.05;12.82;;;-3275.90;93.10;;;;;;5036786;28;19913;-41
2022/12/09 03:05:17;;;;;;;21.58;13.57;;;-3275.90;93.00;;;;;;5034137;28;20059;-45
2022/12/09 03:08:00;;;;;;;22.20;13.43;;;-3275.90;93.10;;;;;;5034010;28;20431;-42
2022/12/09 03:10:42;;;;;;;26.77;15.70;;;-3276.00;93.00;;;;;;5033069;28;20467;-43
2022/12/09 03:13:31;;;;;;;25.75;14.90;;;-3275.90;92.90;;;;;;5034115;28;20368;-44
2022/12/09 03:16:21;;;;;;;19.63;11.60;;;-3276.00;93.00;;;;;;5029851;28;20116;-42
2022/12/09 03:18:52;;;;;;;;;;;-3276.00;93.00;;;;;;5048652;28;20132;-43
2022/12/09 03:21:21;;;;;;;18.63;12.52;;;-3276.00;93.00;;;;;;5033216;28;19935;-44
2022/12/09 03:23:49;;;;;;;;;;;-3275.90;93.00;;;;;;5031904;28;20056;-41
2022/12/09 03:26:21;;;;;;;22.27;12.20;;;-3275.90;92.90;;;;;;5033661;28;19912;-41
2022/12/09 03:28:50;;;;;;;19.73;11.88;;;-3275.90;92.80;;;;;;5028727;28;20466;-44
2022/12/09 03:31:20;;;;;;;19.67;13.52;;;-3275.90;92.80;;;;;;5033665;28;20056;-45
2022/12/09 03:33:51;;;;;;;25.17;14.80;;;-3275.80;92.80;;;;;;5033370;28;20108;-42
2022/12/09 03:36:21;;;;;;;24.65;15.07;;;-3275.90;92.90;;;;;;5031875;28;20098;-42
2022/12/09 03:38:48;;;;;;;21.40;13.10;;;-3275.90;92.90;;;;;;5032985;28;20033;-42
2022/12/09 03:41:23;;;;;;;19.23;12.15;;;-3275.90;92.90;;;;;;5037017;28;20336;-43
2022/12/09 03:43:56;;;;;;;18.60;12.68;;;-3275.90;92.90;;;;;;5033953;28;20067;-43
2022/12/09 03:46:24;;;;;;;21.08;11.13;;;-3275.90;92.90;;;;;;5042560;28;20249;-44
2022/12/09 03:48:56;;;;;;;20.25;10.75;;;-3275.90;92.90;;;;;;5034075;28;20041;-42
2022/12/09 03:51:29;;;;;;;15.82;10.68;;;-3275.90;92.90;;;;;;5047502;28;20462;-41
2022/12/09 03:54:20;;;;;;;19.05;10.50;;;-3275.90;92.80;;;;;;5033587;28;20041;-42
2022/12/09 03:56:55;;;;;;;19.58;10.65;;;-3275.90;92.80;;;;;;5032540;28;20398;-42
2022/12/09 03:59:28;;;;;;;18.95;10.95;;;-3275.90;92.80;;;;;;5038260;28;20021;-43
2022/12/09 04:01:55;;;;;;;16.63;10.82;;;-3275.90;92.80;;;;;;5033590;28;20049;-41
2022/12/09 04:04:22;;;;;;;16.75;10.82;;;-3275.90;92.80;;;;;;5032413;28;20030;-44
2022/12/09 04:06:51;;;;;;;16.77;9.75;;;-3275.90;92.80;;;;;;5053460;28;20024;-44
2022/12/09 04:09:18;;;;;;;14.02;9.38;;;-3275.90;92.80;;;;;;5053537;28;20104;-41
2022/12/09 04:11:44;;;;;;;19.38;10.00;;;-3275.90;92.80;;;;;;5050854;28;20442;-42
2022/12/09 04:14:14;;;;;;;17.80;10.25;;;-3275.90;92.70;;;;;;5048912;28;20035;-41
2022/12/09 04:16:41;;;;;;;15.75;10.30;;;-3275.90;92.70;;;;;;5033255;28;20109;-42
2022/12/09 04:19:08;;;;;;;14.57;9.60;;;-3275.90;92.70;;;;;;5027102;28;20032;-41
2022/12/09 04:21:35;;;;;;;19.98;12.00;;;-3275.90;92.60;;;;;;5032890;28;20344;-42
2022/12/09 04:24:04;;;;;;;20.83;11.43;;;-3275.80;92.60;;;;;;5065642;28;20142;-42
2022/12/09 04:26:30;;;;;;;17.92;10.48;;;-3275.90;92.60;;;;;;5040591;28;20436;-41
2022/12/09 04:28:57;;;;;;;16.55;10.95;;;-3275.90;92.60;;;;;;5066723;28;20037;-42
2022/12/09 04:31:24;;;;;;;17.85;10.30;;;-3275.90;92.60;;;;;;5053192;28;20070;-42
2022/12/09 04:33:50;;;;;;;20.85;10.93;;;-3275.90;92.60;;;;;;5053106;28;20058;-42
2022/12/09 04:36:19;;;;;;;17.30;11.63;;;-3275.90;92.60;;;;;;5052550;28;20116;-41
2022/12/09 04:38:48;;;;;;;17.92;10.02;;;-3275.80;92.60;;;;;;5032185;28;20037;-43
2022/12/09 04:41:15;;;;;;;21.00;11.70;;;-3275.80;92.50;;;;;;5033211;28;20025;-43
2022/12/09 04:43:43;;;;;;;18.40;11.90;;;-3275.80;92.50;;;;;;5033257;28;20441;-42
2022/12/09 04:46:15;;;;;;;18.88;10.75;;;-3275.80;92.50;;;;;;5031477;28;20036;-44
2022/12/09 04:48:42;;;;;;;24.45;12.50;;;-3275.80;92.50;;;;;;5042397;28;20029;-43
2022/12/09 04:51:13;;;;;;;17.63;10.60;;;-3275.80;92.40;;;;;;5038902;28;20043;-42
2022/12/09 04:53:42;;;;;;;19.42;12.55;;;-3275.80;92.40;;;;;;5033229;28;20112;-41
2022/12/09 04:56:10;;;;;;;;;;;-3275.80;92.40;;;;;;5031842;28;20048;-44
2022/12/09 04:58:40;;;;;;;17.63;10.93;;;-3275.80;92.40;;;;;;5035589;28;19921;-44
2022/12/09 05:01:09;;;;;;;19.58;10.98;;;-3275.80;92.40;;;;;;5042436;28;20042;-42
2022/12/09 05:03:39;;;;;;;19.73;11.63;;;-3275.80;92.40;;;;;;5028500;28;20096;-42
2022/12/09 05:06:11;;;;;;;15.55;10.75;;;-3275.80;92.40;;;;;;5029450;28;20302;-43
2022/12/09 05:08:41;;;;;;;16.52;10.55;;;-3275.80;92.40;;;;;;5040018;28;20029;-42
2022/12/09 05:11:09;;;;;;;17.73;11.88;;;-3275.80;92.40;;;;;;5052674;28;20032;-45
2022/12/09 05:13:35;;;;;;;18.17;11.15;;;-3275.80;92.40;;;;;;5051672;28;20107;-43
2022/12/09 05:16:19;;;;;;;16.65;11.18;;;-3275.80;92.40;;;;;;5033360;28;20164;-43
2022/12/09 05:18:47;;;;;;;20.33;12.18;;;-3275.70;92.30;;;;;;5032822;28;20048;-47
2022/12/09 05:21:17;;;;;;;19.33;11.93;;;-3275.70;92.30;;;;;;5031041;28;20091;-43
2022/12/09 05:23:44;;;;;;;20.50;14.27;;;-3275.70;92.30;;;;;;5027775;28;20033;-42
2022/12/09 05:26:14;;;;;;;26.13;12.23;;;-3275.70;92.40;;;;;;5013178;28;20033;-43
2022/12/09 05:28:40;;;;;;;19.95;11.18;;;-3275.70;92.50;;;;;;5012769;28;20034;-42
2022/12/09 05:31:11;;;;;;;18.98;12.00;;;-3275.70;92.60;;;;;;5034448;28;20069;-43
2022/12/09 05:33:38;;;;;;;18.02;11.98;;;-3275.80;92.60;;;;;;5032478;28;20030;-41
2022/12/09 05:36:16;;;;;;;17.02;10.75;;;-3275.80;92.70;;;;;;5030899;28;20030;-42
2022/12/09 05:38:43;;;;;;;17.92;11.82;;;-3275.80;92.80;;;;;;5046106;28;20162;-44
2022/12/09 05:41:12;;;;;;;18.33;11.82;;;-3275.80;92.70;;;;;;5049375;28;20033;-41
2022/12/09 05:43:39;;;;;;;18.95;11.88;;;-3275.80;92.70;;;;;;5046001;28;20033;-44
2022/12/09 05:46:13;;;;;;;18.42;10.88;;;-3275.80;92.70;;;;;;5052838;28;20091;-41
2022/12/09 05:48:41;;;;;;;15.43;11.10;;;-3275.90;92.80;;;;;;5047124;28;20020;-47
2022/12/09 05:51:13;;;;;;;19.60;12.57;;;-3275.90;92.70;;;;;;5042551;28;20029;-44
2022/12/09 05:53:40;;;;;;;18.13;11.55;;;-3275.90;92.70;;;;;;5035218;28;20089;-43
2022/12/09 05:56:06;;;;;;;19.75;12.45;;;-3275.90;92.70;;;;;;5035719;28;20025;-42
2022/12/09 05:58:33;;;;;;;20.88;12.13;;;-3275.90;92.70;;;;;;5058822;28;20481;-42
2022/12/09 06:01:05;;;;;;;22.48;13.40;;;-3275.90;92.70;;;;;;5036881;28;20088;-42
2022/12/09 06:03:32;;;;;;;21.15;12.73;;;-3275.90;92.60;;;;;;5035448;28;20447;-43
2022/12/09 06:06:09;;;;;;;17.05;11.40;;;-3275.90;92.60;;;;;;5034025;28;20029;-44
2022/12/09 06:08:41;;;;;;;16.45;10.93;;;-3275.80;92.50;;;;;;5056000;28;20467;-42
2022/12/09 06:11:17;;;;;;;19.13;11.15;;;-3275.80;92.40;;;;;;5033872;28;20052;-42
2022/12/09 06:13:45;;;;;;;19.70;11.95;;;-3275.70;92.30;;;;;;5034187;28;20025;-41
2022/12/09 06:16:13;;;;;;;17.83;11.45;;;-3275.60;92.30;;;;;;5033080;28;20030;-44
2022/12/09 06:18:40;;;;;;;16.88;12.02;;;-3275.70;92.40;;;;;;5033896;28;20087;-44
2022/12/09 06:21:09;;;;;;;17.48;11.57;;;-3275.60;92.40;;;;;;5034861;28;20091;-41
2022/12/09 06:23:42;;;;;;;17.80;12.60;;;-3275.70;92.40;;;;;;5035573;28;20501;-43
2022/12/09 06:26:21;;;;;;;19.77;11.95;;;-3275.70;92.50;;;;;;5034529;28;20052;-41
2022/12/09 06:28:50;;;;;;;23.30;13.27;;;-3275.70;92.50;;;;;;5031329;28;20497;-41
2022/12/09 06:31:17;;;;;;;17.25;11.48;;;-3275.70;92.60;;;;;;5032835;28;20378;-47
2022/12/09 06:33:47;;;;;;;22.80;12.85;;;-3275.70;92.60;;;;;;5033486;28;20049;-42
2022/12/09 06:36:17;;;;;;;17.10;11.93;;;-3275.80;92.60;;;;;;5033473;28;20064;-42
2022/12/09 06:38:43;;;;;;;18.95;13.23;;;-3275.70;92.50;;;;;;5067150;28;20123;-44
2022/12/09 06:41:12;;;;;;;19.38;12.45;;;-3275.70;92.50;;;;;;5038621;28;20490;-41
2022/12/09 06:43:40;;;;;;;20.17;12.82;;;-3275.70;92.50;;;;;;5031555;28;20051;-44
2022/12/09 06:46:12;;;;;;;19.67;13.02;;;-3275.70;92.50;;;;;;5033661;28;20032;-44
2022/12/09 06:48:38;;;;;;;21.45;12.82;;;-3275.70;92.50;;;;;;5032947;28;20116;-42
2022/12/09 06:51:06;;;;;;;20.35;11.50;;;-3275.70;92.50;;;;;;5031464;28;20038;-43
2022/12/09 06:53:33;;;;;;;17.77;11.75;;;-3275.70;92.50;;;;;;5048483;28;20029;-43
2022/12/09 06:56:10;;;;;;;19.08;12.43;;;-3275.70;92.50;;;;;;5037739;28;20065;-41
2022/12/09 06:58:38;;;;;;;15.65;11.32;;;-3275.70;92.50;;;;;;5033439;28;20064;-43
2022/12/09 07:01:20;;;;;;;18.77;11.35;;;-3275.70;92.50;;;;;;5033919;28;20083;-43
2022/12/09 07:03:49;;;;;;;20.20;12.02;;;-3275.70;92.50;;;;;;5034931;28;20388;-44
2022/12/09 07:06:37;;;;;;;19.80;12.80;;;-3275.70;92.50;;;;;;5032807;28;20839;-43
2022/12/09 07:09:17;;;;;;;22.50;13.33;;;-3275.70;92.60;;;;;;5032530;28;20550;-44
2022/12/09 07:11:45;;;;;;;21.67;13.32;;;-3275.70;92.60;;;;;;5033127;28;20045;-42
2022/12/09 07:14:13;;;;;;;19.00;12.77;;;-3275.70;92.70;;;;;;5032236;28;20029;-41
2022/12/09 07:16:40;;;;;;;22.85;12.63;;;-3275.70;92.70;;;;;;5061213;28;20032;-44
2022/12/09 07:19:15;;;;;;;22.13;13.38;;;-3275.70;92.80;;;;;;5033730;28;20056;-41
2022/12/09 07:21:44;;;;;;;22.75;13.50;;;-3275.80;92.90;;;;;;5031698;28;20033;-42
2022/12/09 07:24:17;;;;;;;20.20;12.63;;;-3275.80;92.90;;;;;;5032593;28;20049;-41
2022/12/09 07:26:44;;;;;;;19.90;12.65;;;-3275.80;92.80;;;;;;5031531;28;20120;-43
2022/12/09 07:29:11;;;;;;;25.10;14.82;;;-3275.80;92.90;;;;;;5033567;28;20080;-46
2022/12/09 07:31:37;;;;;;;23.88;13.45;;;-3275.80;92.80;;;;;;5031685;28;20036;-41
2022/12/09 07:34:05;;;;;;;21.05;13.98;;;-3275.80;92.80;;;;;;5035604;28;20033;-43
2022/12/09 07:36:34;;;;;;;22.27;14.50;;;-3275.80;92.70;;;;;;5030895;28;20026;-42
2022/12/09 07:39:06;;;;;;;21.55;14.02;;;-3275.80;92.80;;;;;;5032614;28;20029;-44
2022/12/09 07:41:33;;;;;;;20.73;13.02;;;-3275.80;92.70;;;;;;5033540;28;20022;-41
2022/12/09 07:44:00;;;;;;;21.92;13.55;;;-3275.80;92.80;;;;;;5035627;28;20044;-44
2022/12/09 07:46:27;;;;;;;23.40;14.57;;;-3275.80;92.80;;;;;;5032387;28;20076;-41
2022/12/09 07:48:57;;;;;;;27.98;16.77;;;-3275.80;92.80;;;;;;5030982;28;20033;-41
2022/12/09 07:51:24;;;;;;;21.08;14.68;;;-3275.90;92.80;;;;;;5031718;28;20104;-41
2022/12/09 07:53:52;;;;;;;24.23;15.00;;;-3275.90;92.90;;;;;;5016207;28;20033;-42
2022/12/09 07:56:23;;;;;;;23.88;15.00;;;-3275.90;92.90;;;;;;5031408;28;20113;-41
2022/12/09 07:58:52;;;;;;;30.63;15.40;;;-3276.00;92.90;;;;;;5031161;28;20359;-43
2022/12/09 08:01:22;;;;;;;25.02;16.35;;;-3276.00;92.90;;;;;;5036225;28;20104;-42
2022/12/09 08:03:52;;;;;;;21.42;14.05;;;-3276.00;92.80;;;;;;5053437;28;20469;-41
2022/12/09 08:06:23;;;;;;;27.17;13.85;;;-3276.00;92.90;;;;;;5030971;28;20106;-41
2022/12/09 08:08:50;;;;;;;21.27;14.60;;;-3276.10;93.00;;;;;;5050210;28;20034;-42
2022/12/09 08:11:21;;;;;;;26.45;15.57;;;-3276.10;92.90;;;;;;5048990;28;20405;-41
2022/12/09 08:13:49;;;;;;;23.15;15.57;;;-3276.10;92.80;;;;;;5033035;28;20386;-41
2022/12/09 08:16:18;;;;;;;25.45;15.05;;;-3276.10;92.80;;;;;;5030369;28;20033;-43
2022/12/09 08:18:46;;;;;;;22.40;13.93;;;-3276.10;92.70;;;;;;5037875;28;20371;-41
2022/12/09 08:21:17;;;;;;;27.10;18.15;;;-3276.10;92.70;;;;;;5034855;28;20029;-42
2022/12/09 08:23:44;;;;;;;25.20;14.40;;;-3276.10;92.80;;;;;;5038691;28;20087;-41
2022/12/09 08:26:12;;;;;;;25.23;15.07;;;-3276.10;92.60;;;;;;5045027;28;20112;-43
2022/12/09 08:28:39;;;;;;;24.85;16.35;;;-3276.10;92.70;;;;;;5035913;28;20029;-44
2022/12/09 08:31:12;;;;;;;28.05;17.15;;;-3276.20;92.70;;;;;;5038752;28;20686;-41
2022/12/09 08:33:39;;;;;;;26.77;16.58;;;-3276.10;92.60;;;;;;5030203;28;20044;-41
2022/12/09 08:36:11;;;;;;;25.02;15.70;;;-3276.10;92.50;;;;;;5021599;28;20320;-41
2022/12/09 08:38:39;;;;;;;25.58;15.82;;;-3276.20;92.70;;;;;;5030464;28;20029;-42
2022/12/09 08:41:18;;;;;;;24.30;15.20;;;-3276.20;92.60;;;;;;5028444;28;20029;-41
2022/12/09 08:43:45;;;;;;;28.10;16.48;;;-3276.30;92.60;;;;;;5028600;28;20022;-42
2022/12/09 08:46:15;;;;;;;26.25;16.80;;;-3276.30;92.60;;;;;;5031201;28;20032;-42
2022/12/09 08:48:42;;;;;;;23.10;14.93;;;-3276.30;92.70;;;;;;5030140;28;20174;-41
2022/12/09 08:51:10;;;;;;;24.33;15.55;;;-3276.40;92.70;;;;;;5030844;28;20033;-42
2022/12/09 08:53:37;;;;;;;27.08;15.63;;;-3276.50;92.70;;;;;;5034227;28;20029;-42
2022/12/09 08:56:12;;;;;;;23.40;16.35;;;-3276.50;92.60;;;;;;5051985;28;20021;-42
2022/12/09 08:58:40;;;;;;;25.85;16.73;;;-3276.60;92.60;;;;;;5040929;28;20175;-42
2022/12/09 09:01:15;;;;;;;26.10;16.40;;;0.00;92.60;;;;;;5052400;28;20032;-43
2022/12/09 09:03:45;;;;;;;27.60;18.42;;;0.00;92.50;;;;;;5046524;28;20450;-42
2022/12/09 09:06:13;;;;;;;22.40;14.50;;;0.10;92.40;;;;;;5032391;28;20040;-43
2022/12/09 09:08:42;;;;;;;25.08;16.35;;;0.20;92.30;;;;;;5028449;28;20120;-44
2022/12/09 09:11:11;;;;;;;21.98;14.75;;;0.40;92.30;;;;;;5037104;28;20021;-47
2022/12/09 09:13:45;;;;;;;31.33;15.73;;;0.50;92.00;;;;;;5030929;28;20072;-48
2022/12/09 09:16:18;;;;;;;22.83;15.43;;;0.50;92.00;;;;;;5064719;28;20575;-49
2022/12/09 09:18:44;;;;;;;23.73;16.02;;;0.60;91.90;;;;;;5031388;28;20079;-50
2022/12/09 09:21:15;;;;;;;23.48;15.43;;;0.60;91.40;;;;;;5036357;28;20068;-54
2022/12/09 09:23:43;;;;;;;22.65;15.20;;;0.60;91.40;;;;;;5036584;28;20041;-57
2022/12/09 09:26:15;;;;;;;23.30;16.13;;;0.60;91.40;;;;;;5035037;28;20064;-59
2022/12/09 09:28:45;;;;;;;21.08;15.18;;;0.60;91.30;;;;;;5035395;28;20033;-59
2022/12/09 09:31:18;;;;;;;22.20;14.82;;;0.60;91.40;;;;;;5035216;28;20136;-59
2022/12/09 09:33:45;;;;;;;23.88;16.30;;;0.60;91.40;;;;;;5035602;28;20037;-56
2022/12/09 09:36:21;;;;;;;21.65;14.40;;;0.60;91.40;;;;;;5036129;28;20025;-52
2022/12/09 09:38:53;;;;;;;25.17;17.02;;;0.60;91.40;;;;;;5035964;28;20116;-52
2022/12/09 09:41:40;;;;;;;25.10;16.77;;;0.60;91.30;;;;;;5031207;28;20611;-50
2022/12/09 09:44:33;;;;;;;26.65;15.73;;;0.50;91.30;;;;;;5018487;28;20357;-47
2022/12/09 09:47:08;;;;;;;25.70;15.13;;;0.50;91.40;;;;;;5047847;28;20030;-48
2022/12/09 09:49:39;;;;;;;24.40;14.98;;;0.50;91.40;;;;;;5032837;28;20023;-52
2022/12/09 09:52:17;;;;;;;23.77;15.63;;;0.60;91.50;;;;;;5067930;28;20033;-46
2022/12/09 09:54:45;;;;;;;27.60;17.45;;;0.70;91.40;;;;;;5035337;28;20071;-46
2022/12/09 09:57:22;;;;;;;25.95;15.65;;;0.70;91.30;;;;;;5036708;28;20045;-46
2022/12/09 10:00:22;;;;;;;24.92;15.18;;;0.80;91.20;;;;;;5028553;28;20030;-45
2022/12/09 10:03:18;;;;;;;23.35;15.07;;;0.70;91.20;;;;;;5033820;28;20029;-43
2022/12/09 10:06:32;;;;;;;24.73;16.17;;;0.70;91.10;;;;;;5032016;28;20120;-42
2022/12/09 10:09:16;;;;;;;22.85;15.93;;;0.70;91.20;;;;;;5025695;28;20421;-41
2022/12/09 10:12:23;;;;;;;25.45;16.85;;;0.70;91.20;;;;;;5033179;28;20128;-40
2022/12/09 10:15:12;;;;;;;24.85;16.13;;;0.70;91.30;;;;;;5046856;28;20049;-39
2022/12/09 10:18:24;;;;;;;25.15;17.83;;;0.60;91.30;;;;;;5053089;28;20048;-40
2022/12/09 10:20:53;;;;;;;27.33;17.33;;;0.70;91.50;;;;;;4980671;28;20069;-40
2022/12/09 10:23:21;;;;;;;26.35;17.75;;;0.70;91.60;;;;;;5032012;28;20025;-40
2022/12/09 10:25:55;;;;;;;29.15;17.23;;;0.80;91.70;;;;;;5032056;28;20053;-40
2022/12/09 10:28:31;;;;;;;27.52;17.60;;;0.90;91.70;;;;;;5031796;28;20029;-40
2022/12/09 10:30:57;;;;;;;26.35;17.13;;;0.90;91.60;;;;;;5031236;28;20068;-41
2022/12/09 10:33:36;;;;;;;26.60;17.35;;;0.90;91.60;;;;;;5032108;28;20119;-41
2022/12/09 10:36:06;;;;;;;27.70;18.45;;;0.90;91.80;;;;;;5032486;28;20054;-42
2022/12/09 10:38:38;;;;;;;31.27;19.23;;;0.90;91.80;;;;;;5015634;28;20046;-40
2022/12/09 10:41:15;;;;;;;33.40;19.48;;;0.90;91.70;;;;;;5031510;28;20095;-44
2022/12/09 10:43:42;;;;;;;27.95;18.35;;;0.90;91.90;;;;;;5033005;28;20064;-41
2022/12/09 10:46:17;;;;;;;31.90;20.05;;;0.90;92.00;;;;;;5026178;28;20120;-40
2022/12/09 10:48:46;;;;;;;29.45;19.75;;;0.90;92.00;;;;;;5033046;28;20033;-43
2022/12/09 10:51:17;;;;;;;27.73;19.10;;;0.90;92.00;;;;;;5034369;28;20033;-41
2022/12/09 10:54:33;;;;;;;32.90;20.02;;;0.90;91.90;;;;;;5034901;28;20080;-42
2022/12/09 10:57:05;;;;;;;29.30;17.92;;;0.90;92.10;;;;;;5022412;28;20037;-43
2022/12/09 10:59:33;;;;;;;30.48;19.55;;;1.00;92.20;;;;;;5031104;28;20454;-41
2022/12/09 11:02:07;;;;;;;28.92;18.88;;;1.10;92.10;;;;;;5039717;28;20033;-41
2022/12/09 11:04:40;;;;;;;26.02;17.23;;;1.10;92.10;;;;;;5032408;28;20148;-42
2022/12/09 11:07:09;;;;;;;29.70;18.95;;;1.10;92.10;;;;;;5034342;28;20036;-42
2022/12/09 11:09:48;;;;;;;33.20;18.83;;;1.10;92.10;;;;;;5038580;28;20457;-40
2022/12/09 11:12:26;;;;;;;29.00;18.90;;;1.10;92.10;;;;;;5033326;28;20033;-40
2022/12/09 11:15:03;;;;;;;29.73;18.85;;;1.10;92.20;;;;;;5034483;28;20264;-42
2022/12/09 11:17:58;;;;;;;27.92;18.08;;;1.20;92.20;;;;;;5060091;28;20366;-40
2022/12/09 11:20:30;;;;;;;26.30;16.75;;;1.30;92.20;;;;;;5065857;28;20017;-43
2022/12/09 11:23:15;;;;;;;31.45;19.67;;;1.30;92.20;;;;;;5054508;28;20032;-41
2022/12/09 11:25:59;;;;;;;30.90;19.95;;;1.30;92.20;;;;;;5054169;28;20504;-43
2022/12/09 11:28:44;;;;;;;29.60;19.75;;;1.40;92.20;;;;;;5040866;28;20021;-41
2022/12/09 11:31:32;;;;;;;30.95;18.70;;;1.40;92.30;;;;;;5053308;28;20029;-42
2022/12/09 11:34:02;;;;;;;33.35;19.83;;;1.40;92.20;;;;;;5032506;28;20029;-42
2022/12/09 11:36:51;;;;;;;32.35;19.60;;;1.50;92.20;;;;;;5033470;28;20022;-42
2022/12/09 11:39:24;;;;;;;27.92;18.02;;;1.50;92.10;;;;;;5031525;28;20032;-43
2022/12/09 11:44:38;;;;;;;33.33;19.90;;;1.50;92.10;;;;;;5032128;28;20048;-41
2022/12/09 11:47:12;;;;;;;30.83;20.88;;;1.50;92.10;;;;;;5031666;28;20128;-42
2022/12/09 11:50:14;;;;;;;31.73;21.40;;;1.50;92.10;;;;;;5033584;28;20021;-41
2022/12/09 11:52:42;;;;;;;29.40;18.95;;;1.50;92.00;;;;;;5013888;28;20036;-45
2022/12/09 11:55:21;;;;;;;28.85;19.83;;;1.60;92.20;;;;;;5048629;28;20462;-40
2022/12/09 11:58:02;;;;;;;30.17;20.55;;;1.60;92.10;;;;;;5034891;28;20050;-43
2022/12/09 12:00:41;;;;;;;29.60;18.60;;;1.60;92.20;;;;;;5033071;28;20439;-45
2022/12/09 12:03:20;;;;;;;30.88;21.02;;;1.60;92.20;;;;;;5028644;28;20531;-41
2022/12/09 12:05:50;;;;;;;32.30;21.02;;;1.50;92.00;;;;;;5033151;28;20025;-44
2022/12/09 12:08:42;;;;;;;27.63;18.35;;;1.60;92.10;;;;;;5047339;28;20033;-40
2022/12/09 12:11:17;;;;;;;33.22;20.98;;;1.60;92.20;;;;;;5053087;28;20612;-40
2022/12/09 12:13:51;;;;;;;30.17;18.90;;;1.50;92.10;;;;;;5040642;28;20435;-42
2022/12/09 12:16:47;;;;;;;31.65;20.05;;;1.60;92.20;;;;;;5033469;28;20324;-44
2022/12/09 12:19:42;;;;;;;29.98;18.52;;;1.60;92.30;;;;;;5028833;28;20029;-41
2022/12/09 12:22:11;;;;;;;29.80;20.38;;;1.70;92.20;;;;;;5032504;28;20041;-39
2022/12/09 12:25:11;;;;;;;33.35;19.98;;;1.70;92.30;;;;;;5033031;28;20108;-42
2022/12/09 12:27:58;;;;;;;29.67;18.30;;;1.70;92.10;;;;;;5068533;28;20048;-39
2022/12/09 12:30:36;;;;;;;33.55;21.27;;;1.80;92.20;;;;;;5055124;28;20164;-40
2022/12/09 12:33:26;;;;;;;33.72;21.02;;;1.80;92.30;;;;;;5038232;28;20066;-42
2022/12/09 12:36:10;;;;;;;36.28;22.13;;;1.80;92.20;;;;;;5043220;28;20032;-41
2022/12/09 12:38:57;;;;;;;32.85;21.25;;;1.70;92.20;;;;;;5037052;28;20109;-40
2022/12/09 12:41:44;;;;;;;35.22;21.65;;;1.80;92.30;;;;;;5035417;28;20030;-42
2022/12/09 12:47:57;;;;;;;39.53;22.70;;;1.80;92.30;;;;;;5031010;28;20040;-41
2022/12/09 12:50:45;;;;;;;36.97;23.65;;;1.80;92.30;;;;;;5035680;28;20029;-40